Time;durP1;ratioP1;P1;durP2;ratioP2;P2;SDS_P1;SDS_P2;PMS_P1;PMS_P2;Temp;Humidity;BMP_temperature;BMP_pressure;BME280_temperature;BME280_humidity;BME280_pressure;Samples;Min_cycle;Max_cycle;Signal;HPM_P1;HPM_P2
2023/05/21 00:01:47;;;;;;;;;;;15.70;99.90;;;;;;7332297;19;110418;-60
2023/05/21 00:04:14;;;;;;;;;;;15.70;99.90;;;;;;7328603;19;111245;-60
2023/05/21 00:06:41;;;;;;;;;;;15.70;99.90;;;;;;7340594;19;110608;-60
2023/05/21 00:09:09;;;;;;;;;;;15.60;99.90;;;;;;7333366;19;110810;-60
2023/05/21 00:11:36;;;;;;;;;;;15.40;99.90;;;;;;7334467;19;110220;-60
2023/05/21 00:14:04;;;;;;;;;;;15.30;99.90;;;;;;7328745;19;110061;-61
2023/05/21 00:16:31;;;;;;;;;;;15.30;99.90;;;;;;7335421;19;110017;-60
2023/05/21 00:18:58;;;;;;;;;;;15.20;99.90;;;;;;7331949;19;110765;-60
2023/05/21 00:21:25;;;;;;;;;;;15.10;99.90;;;;;;7333422;19;109902;-61
2023/05/21 00:23:55;;;;;;;;;;;15.10;99.90;;;;;;7331989;19;111353;-60
2023/05/21 00:26:25;;;;;;;;;;;15.10;99.90;;;;;;7332008;19;110146;-61
2023/05/21 00:28:52;;;;;;;;;;;15.10;99.90;;;;;;7335677;19;112476;-60
2023/05/21 00:31:19;;;;;;;;;;;15.10;99.90;;;;;;7329273;19;111112;-61
2023/05/21 00:33:46;;;;;;;;;;;15.00;99.90;;;;;;7328360;19;109952;-60
2023/05/21 00:36:13;;;;;;;;;;;15.00;99.90;;;;;;7329609;19;110579;-61
2023/05/21 00:38:42;;;;;;;;;;;15.10;99.90;;;;;;7332225;19;110242;-60
2023/05/21 00:41:10;;;;;;;;;;;15.10;99.90;;;;;;7327530;19;111360;-61
2023/05/21 00:43:40;;;;;;;;;;;15.10;99.90;;;;;;7329423;19;109620;-60
2023/05/21 00:46:15;;;;;;;;;;;15.20;99.90;;;;;;7329553;19;110158;-61
2023/05/21 00:48:46;;;;;;;;;;;15.20;99.90;;;;;;7329698;19;111449;-60
2023/05/21 00:51:13;;;;;;;;;;;15.10;99.90;;;;;;7334706;19;112206;-60
2023/05/21 00:53:41;;;;;;;;;;;15.10;99.90;;;;;;7330977;19;109702;-61
2023/05/21 00:56:08;;;;;;;;;;;15.10;99.90;;;;;;7327210;19;109334;-60
2023/05/21 00:58:36;;;;;;;;;;;15.10;99.90;;;;;;7331787;19;110462;-60
2023/05/21 01:01:05;;;;;;;;;;;15.00;99.90;;;;;;7326340;19;110877;-61
2023/05/21 01:03:37;;;;;;;;;;;15.00;99.90;;;;;;7328696;19;110646;-60
2023/05/21 01:06:05;;;;;;;;;;;15.00;99.90;;;;;;7325642;19;110264;-61
2023/05/21 01:08:33;;;;;;;;;;;14.90;99.90;;;;;;7331665;19;111003;-61
2023/05/21 01:11:04;;;;;;;;;;;14.90;99.90;;;;;;7327439;19;111216;-60
2023/05/21 01:13:32;;;;;;;;;;;14.80;99.90;;;;;;7331664;19;110151;-61
2023/05/21 01:16:00;;;;;;;;;;;14.80;99.90;;;;;;7330126;19;114168;-61
2023/05/21 01:18:28;;;;;;;;;;;14.70;99.90;;;;;;7328854;19;111145;-60
2023/05/21 01:20:55;;;;;;;;;;;14.70;99.90;;;;;;7328278;19;109542;-61
2023/05/21 01:23:22;;;;;;;;;;;14.70;99.90;;;;;;7126020;19;3900419;-69
2023/05/21 01:25:50;;;;;;;;;;;14.70;99.90;;;;;;7338006;19;109540;-60
2023/05/21 01:28:17;;;;;;;;;;;14.70;99.90;;;;;;7337431;19;109774;-61
2023/05/21 01:30:45;;;;;;;;;;;14.70;99.90;;;;;;7339029;19;110511;-61
2023/05/21 01:33:22;;;;;;;;;;;14.70;99.90;;;;;;7337554;19;111095;-61
2023/05/21 01:35:50;;;;;;;;;;;14.70;99.90;;;;;;7344123;19;109859;-61
2023/05/21 01:38:23;;;;;;;;;;;14.60;99.90;;;;;;7336727;19;110165;-61
2023/05/21 01:40:51;;;;;;;;;;;14.60;99.90;;;;;;7338752;19;110386;-60
2023/05/21 01:43:18;;;;;;;;;;;14.60;99.90;;;;;;7339295;19;110298;-60
2023/05/21 01:45:46;;;;;;;;;;;14.60;99.90;;;;;;7337299;19;110751;-61
2023/05/21 01:48:13;;;;;;;;;;;14.60;99.90;;;;;;7337070;19;110077;-60
2023/05/21 01:50:42;;;;;;;;;;;14.40;99.90;;;;;;7338041;19;109877;-61
2023/05/21 01:53:09;;;;;;;;;;;14.30;99.90;;;;;;7335677;19;111294;-61
2023/05/21 01:55:40;;;;;;;;;;;14.30;99.90;;;;;;7341183;19;109697;-60
2023/05/21 01:58:07;;;;;;;;;;;14.20;99.90;;;;;;7336387;19;110678;-61
2023/05/21 02:00:36;;;;;;;;;;;14.20;99.90;;;;;;7338870;19;111073;-60
2023/05/21 02:03:03;;;;;;;;;;;14.30;99.90;;;;;;7334925;19;110839;-60
2023/05/21 02:05:30;;;;;;;;;;;14.30;99.90;;;;;;7335708;19;110704;-60
2023/05/21 02:08:00;;;;;;;;;;;14.40;99.90;;;;;;7340192;19;111265;-60
2023/05/21 02:10:27;;;;;;;;;;;14.40;99.90;;;;;;7338835;19;110049;-61
2023/05/21 02:12:54;;;;;;;;;;;14.40;99.90;;;;;;7337797;19;110559;-61
2023/05/21 02:15:23;;;;;;;;;;;14.40;99.90;;;;;;7337989;19;109631;-61
2023/05/21 02:17:51;;;;;;;;;;;14.40;99.90;;;;;;7343779;19;110408;-60
2023/05/21 02:20:21;;;;;;;;;;;14.40;99.90;;;;;;7336120;19;109326;-60
2023/05/21 02:22:48;;;;;;;;;;;14.30;99.90;;;;;;7336859;19;110867;-61
2023/05/21 02:25:17;;;;;;;;;;;14.30;99.90;;;;;;7333086;19;111080;-61
2023/05/21 02:27:45;;;;;;;;;;;14.20;99.90;;;;;;7339086;19;109903;-61
2023/05/21 02:30:13;;;;;;;;;;;14.20;99.90;;;;;;7334195;19;110537;-61
2023/05/21 02:32:41;;;;;;;;;;;14.30;99.90;;;;;;7338336;19;111168;-60
2023/05/21 02:35:10;;;;;;;;;;;14.30;99.90;;;;;;7336018;19;112424;-61
2023/05/21 02:37:39;;;;;;;;;;;14.30;99.90;;;;;;7334117;19;109983;-61
2023/05/21 02:40:08;;;;;;;;;;;14.20;99.90;;;;;;7341734;19;111465;-61
2023/05/21 02:42:38;;;;;;;;;;;14.20;99.90;;;;;;7334329;19;110671;-62
2023/05/21 02:45:10;;;;;;;;;;;14.20;99.90;;;;;;7337028;19;110994;-60
2023/05/21 02:47:37;;;;;;;;;;;14.20;99.90;;;;;;7337555;19;109350;-61
2023/05/21 02:50:05;;;;;;;;;;;14.10;99.90;;;;;;7338426;19;109851;-62
2023/05/21 02:52:32;;;;;;;;;;;14.10;99.90;;;;;;7334833;19;109893;-61
2023/05/21 02:55:00;;;;;;;;;;;14.10;99.90;;;;;;7338617;19;112847;-61
2023/05/21 02:57:27;;;;;;;;;;;14.10;99.90;;;;;;7335433;19;109358;-61
2023/05/21 02:59:54;;;;;;;;;;;14.10;99.90;;;;;;7336025;19;110109;-61
2023/05/21 03:02:21;;;;;;;;;;;14.00;99.90;;;;;;7340562;19;109709;-61
2023/05/21 03:04:49;;;;;;;;;;;13.90;99.90;;;;;;7338024;19;111071;-61
2023/05/21 03:07:18;;;;;;;;;;;13.80;99.90;;;;;;7332512;19;109631;-60
2023/05/21 03:09:46;;;;;;;;;;;13.70;99.90;;;;;;7338917;19;110233;-61
2023/05/21 03:12:13;;;;;;;;;;;13.70;99.90;;;;;;7332654;19;110092;-60
2023/05/21 03:14:42;;;;;;;;;;;13.70;99.90;;;;;;7339746;19;109994;-60
2023/05/21 03:17:12;;;;;;;;;;;13.80;99.90;;;;;;7336207;19;113852;-61
2023/05/21 03:19:40;;;;;;;;;;;13.80;99.90;;;;;;7333335;19;111848;-61
2023/05/21 03:22:08;;;;;;;;;;;13.80;99.90;;;;;;7335111;19;109990;-60
2023/05/21 03:24:35;;;;;;;;;;;13.80;99.90;;;;;;7341602;19;110497;-60
2023/05/21 03:27:05;;;;;;;;;;;13.80;99.90;;;;;;7334095;19;109944;-61
2023/05/21 03:29:32;;;;;;;;;;;13.80;99.90;;;;;;7336786;19;110364;-60
2023/05/21 03:32:00;;;;;;;;;;;13.80;99.90;;;;;;7335553;19;112586;-61
2023/05/21 03:34:27;;;;;;;;;;;13.90;99.90;;;;;;7335662;19;110419;-61
2023/05/21 03:36:54;;;;;;;;;;;13.90;99.90;;;;;;7336704;19;111621;-60
2023/05/21 03:39:21;;;;;;;;;;;13.80;99.90;;;;;;7334590;19;110072;-61
2023/05/21 03:41:49;;;;;;;;;;;13.80;99.90;;;;;;7334782;19;109787;-62
2023/05/21 03:44:16;;;;;;;;;;;13.80;99.90;;;;;;7340141;19;110085;-60
2023/05/21 03:46:44;;;;;;;;;;;13.80;99.90;;;;;;7337158;19;109802;-61
2023/05/21 03:49:12;;;;;;;;;;;13.90;99.90;;;;;;7335851;19;110849;-61
2023/05/21 03:51:39;;;;;;;;;;;13.90;99.90;;;;;;7336782;19;114727;-60
2023/05/21 03:54:07;;;;;;;;;;;13.80;99.90;;;;;;7334322;19;110416;-62
2023/05/21 03:56:34;;;;;;;;;;;13.80;99.90;;;;;;7336425;19;109552;-61
2023/05/21 03:59:01;;;;;;;;;;;13.70;99.90;;;;;;7332239;19;111413;-61
2023/05/21 04:01:28;;;;;;;;;;;13.70;99.90;;;;;;7332111;19;110549;-60
2023/05/21 04:03:55;;;;;;;;;;;13.70;99.90;;;;;;7333345;19;110092;-61
2023/05/21 04:06:23;;;;;;;;;;;13.70;99.90;;;;;;7339660;19;110112;-61
2023/05/21 04:08:51;;;;;;;;;;;13.70;99.90;;;;;;7332628;19;110645;-61
2023/05/21 04:11:18;;;;;;;;;;;13.70;99.90;;;;;;7330375;19;110046;-60
2023/05/21 04:13:45;;;;;;;;;;;13.70;99.90;;;;;;7337589;19;111580;-60
2023/05/21 04:16:13;;;;;;;;;;;13.70;99.90;;;;;;7335519;19;109690;-60
2023/05/21 04:18:40;;;;;;;;;;;13.80;99.90;;;;;;7333913;19;112311;-61
2023/05/21 04:21:11;;;;;;;;;;;13.90;99.90;;;;;;7332645;19;110345;-61
2023/05/21 04:23:38;;;;;;;;;;;13.80;99.90;;;;;;7332135;19;110403;-61
2023/05/21 04:26:06;;;;;;;;;;;13.80;99.90;;;;;;7334465;19;110481;-61
2023/05/21 04:28:34;;;;;;;;;;;13.80;99.90;;;;;;7339227;19;110455;-61
2023/05/21 04:31:01;;;;;;;;;;;13.80;99.90;;;;;;7335176;19;109940;-61
2023/05/21 04:33:29;;;;;;;;;;;13.70;99.90;;;;;;7334507;19;109959;-61
2023/05/21 04:35:56;;;;;;;;;;;13.70;99.90;;;;;;7333645;19;109384;-61
2023/05/21 04:38:24;;;;;;;;;;;13.70;99.90;;;;;;7331749;19;110375;-61
2023/05/21 04:40:51;;;;;;;;;;;13.70;99.90;;;;;;7334258;19;110536;-61
2023/05/21 04:43:25;;;;;;;;;;;13.80;99.90;;;;;;7332682;19;111066;-61
2023/05/21 04:45:53;;;;;;;;;;;13.80;99.90;;;;;;7335119;19;110197;-63
2023/05/21 04:48:25;;;;;;;;;;;13.80;99.90;;;;;;7333611;19;109427;-61
2023/05/21 04:50:53;;;;;;;;;;;13.80;99.90;;;;;;7336921;19;112011;-61
2023/05/21 04:53:21;;;;;;;;;;;13.80;99.90;;;;;;7334184;19;110091;-61
2023/05/21 04:55:48;;;;;;;;;;;13.80;99.90;;;;;;7332426;19;109983;-61
2023/05/21 04:58:17;;;;;;;;;;;13.80;99.90;;;;;;7332907;19;110157;-61
2023/05/21 05:00:50;;;;;;;;;;;13.80;99.90;;;;;;7328547;19;110832;-61
2023/05/21 05:03:17;;;;;;;;;;;13.90;99.90;;;;;;7333057;19;109922;-61
2023/05/21 05:05:44;;;;;;;;;;;13.90;99.90;;;;;;7331795;19;110173;-61
2023/05/21 05:08:12;;;;;;;;;;;14.00;99.90;;;;;;7328272;19;109501;-61
2023/05/21 05:10:41;;;;;;;;;;;14.00;99.90;;;;;;7333845;19;109879;-61
2023/05/21 05:13:08;;;;;;;;;;;14.20;99.90;;;;;;7338737;19;114027;-61
2023/05/21 05:15:35;;;;;;;;;;;14.20;99.90;;;;;;7329957;19;109991;-61
2023/05/21 05:18:05;;;;;;;;;;;14.30;99.90;;;;;;7332173;19;110981;-61
2023/05/21 05:20:32;;;;;;;;;;;14.30;99.90;;;;;;7330956;19;109920;-61
2023/05/21 05:23:00;;;;;;;;;;;14.40;99.90;;;;;;7333177;19;112130;-61
2023/05/21 05:25:27;;;;;;;;;;;14.30;99.90;;;;;;7329639;19;110166;-62
2023/05/21 05:27:54;;;;;;;;;;;14.40;99.90;;;;;;7331727;19;109488;-61
2023/05/21 05:30:21;;;;;;;;;;;14.40;99.90;;;;;;7326866;19;109914;-69
2023/05/21 05:32:48;;;;;;;;;;;14.50;99.90;;;;;;7334022;19;110103;-65
2023/05/21 05:35:15;;;;;;;;;;;14.50;99.90;;;;;;7334992;19;109463;-66
2023/05/21 05:37:42;;;;;;;;;;;14.50;99.90;;;;;;7331518;19;110186;-69
2023/05/21 05:40:09;;;;;;;;;;;14.60;99.90;;;;;;7332402;19;109530;-68
2023/05/21 05:42:36;;;;;;;;;;;14.60;99.90;;;;;;7332592;19;109679;-61
2023/05/21 05:45:04;;;;;;;;;;;14.70;99.90;;;;;;7329575;19;111268;-61
2023/05/21 05:47:31;;;;;;;;;;;14.80;99.90;;;;;;7333266;19;109365;-63
2023/05/21 05:49:58;;;;;;;;;;;14.80;99.90;;;;;;7328643;19;111347;-61
2023/05/21 05:52:25;;;;;;;;;;;14.90;99.90;;;;;;7333611;19;111409;-62
2023/05/21 05:54:52;;;;;;;;;;;14.90;99.90;;;;;;7335564;19;110086;-64
2023/05/21 05:57:20;;;;;;;;;;;14.90;99.90;;;;;;7330505;19;111490;-61
2023/05/21 05:59:47;;;;;;;;;;;15.00;99.90;;;;;;7331423;19;111713;-61
2023/05/21 06:02:14;;;;;;;;;;;15.00;99.90;;;;;;7330714;19;110782;-61
2023/05/21 06:04:41;;;;;;;;;;;15.10;99.90;;;;;;7332451;19;112462;-61
2023/05/21 06:07:08;;;;;;;;;;;15.00;99.90;;;;;;7328529;19;109320;-61
2023/05/21 06:09:37;;;;;;;;;;;15.10;99.90;;;;;;7332190;19;109558;-61
2023/05/21 06:12:05;;;;;;;;;;;15.20;99.90;;;;;;7334651;19;110756;-61
2023/05/21 06:14:32;;;;;;;;;;;15.30;99.90;;;;;;7336571;19;110976;-61
2023/05/21 06:16:59;;;;;;;;;;;15.30;99.90;;;;;;7344069;19;110148;-61
2023/05/21 06:19:26;;;;;;;;;;;15.40;99.90;;;;;;7338216;19;109566;-61
2023/05/21 06:21:54;;;;;;;;;;;15.50;99.90;;;;;;7334991;19;110696;-61
2023/05/21 06:24:21;;;;;;;;;;;15.50;99.90;;;;;;7335277;19;110175;-61
2023/05/21 06:26:48;;;;;;;;;;;15.60;99.90;;;;;;7335289;19;109887;-61
2023/05/21 06:29:15;;;;;;;;;;;15.60;99.90;;;;;;7337232;19;110280;-61
2023/05/21 06:31:43;;;;;;;;;;;15.70;99.90;;;;;;7335049;19;111002;-61
2023/05/21 06:34:10;;;;;;;;;;;15.70;99.90;;;;;;7334963;19;110870;-61
2023/05/21 06:36:37;;;;;;;;;;;15.80;99.90;;;;;;7334230;19;110635;-61
2023/05/21 06:39:04;;;;;;;;;;;15.80;99.90;;;;;;7342378;19;114113;-61
2023/05/21 06:41:31;;;;;;;;;;;15.80;99.90;;;;;;7334305;19;111298;-61
2023/05/21 06:43:58;;;;;;;;;;;15.90;99.90;;;;;;7337084;19;110632;-61
2023/05/21 06:46:25;;;;;;;;;;;16.00;99.90;;;;;;7333324;19;109799;-61
2023/05/21 06:48:52;;;;;;;;;;;16.00;99.90;;;;;;7336576;19;109815;-61
2023/05/21 06:51:20;;;;;;;;;;;16.00;99.90;;;;;;7334314;19;110469;-61
2023/05/21 06:53:47;;;;;;;;;;;16.10;99.90;;;;;;7335486;19;109705;-61
2023/05/21 06:56:14;;;;;;;;;;;16.10;99.90;;;;;;7335655;19;111002;-61
2023/05/21 06:58:41;;;;;;;;;;;16.20;99.90;;;;;;7333142;19;111918;-61
2023/05/21 07:01:08;;;;;;;;;;;16.30;99.90;;;;;;7340531;19;109405;-61
2023/05/21 07:03:35;;;;;;;;;;;16.40;99.90;;;;;;7335209;19;110069;-61
2023/05/21 07:06:02;;;;;;;;;;;16.40;99.90;;;;;;7333280;19;109473;-61
2023/05/21 07:08:29;;;;;;;;;;;16.40;99.90;;;;;;7334760;19;109458;-61
2023/05/21 07:10:56;;;;;;;;;;;16.50;99.90;;;;;;7336618;19;110836;-61
2023/05/21 07:13:23;;;;;;;;;;;16.60;99.90;;;;;;7336440;19;111566;-61
2023/05/21 07:15:50;;;;;;;;;;;16.60;99.90;;;;;;7333707;19;110557;-60
2023/05/21 07:18:18;;;;;;;;;;;16.70;99.90;;;;;;7336724;19;111230;-60
2023/05/21 07:20:45;;;;;;;;;;;16.90;99.90;;;;;;7334796;19;110013;-59
2023/05/21 07:23:12;;;;;;;;;;;16.90;99.90;;;;;;7339708;19;109995;-60
2023/05/21 07:25:39;;;;;;;;;;;16.90;99.90;;;;;;7333516;19;110684;-59
2023/05/21 07:28:06;;;;;;;;;;;16.90;99.90;;;;;;7335149;19;109999;-60
2023/05/21 07:30:33;;;;;;;;;;;16.80;99.90;;;;;;7331770;19;110908;-60
2023/05/21 07:33:00;;;;;;;;;;;16.90;99.90;;;;;;7332387;19;110063;-60
2023/05/21 07:35:28;;;;;;;;;;;17.00;99.90;;;;;;7335871;19;109624;-60
2023/05/21 07:37:55;;;;;;;;;;;17.20;99.90;;;;;;7333901;19;114160;-60
2023/05/21 07:40:22;;;;;;;;;;;17.30;99.90;;;;;;7333452;19;111723;-60
2023/05/21 07:42:49;;;;;;;;;;;17.40;99.90;;;;;;7331241;19;109690;-60
2023/05/21 07:45:16;;;;;;;;;;;17.60;99.90;;;;;;7340519;19;110125;-60
2023/05/21 07:47:45;;;;;;;;;;;17.80;99.90;;;;;;7329866;19;110948;-60
2023/05/21 07:50:13;;;;;;;;;;;17.80;99.90;;;;;;7333823;19;111221;-60
2023/05/21 07:52:40;;;;;;;;;;;17.90;99.90;;;;;;7332526;19;110724;-60
2023/05/21 07:55:07;;;;;;;;;;;18.00;99.90;;;;;;7333337;19;109905;-60
2023/05/21 07:57:35;;;;;;;;;;;18.10;99.90;;;;;;7330806;19;111545;-60
2023/05/21 08:00:05;;;;;;;;;;;18.30;99.90;;;;;;7329862;19;112483;-60
2023/05/21 08:02:32;;;;;;;;;;;18.40;99.90;;;;;;7336207;19;109997;-60
2023/05/21 08:05:00;;;;;;;;;;;18.50;99.90;;;;;;7337102;19;110264;-60
2023/05/21 08:07:27;;;;;;;;;;;18.50;99.90;;;;;;7334287;19;109681;-60
2023/05/21 08:09:54;;;;;;;;;;;18.40;99.90;;;;;;7335313;19;111079;-60
2023/05/21 08:12:21;;;;;;;;;;;18.30;99.90;;;;;;7333452;19;110044;-59
2023/05/21 08:14:49;;;;;;;;;;;18.30;99.90;;;;;;7336219;19;110839;-60
2023/05/21 08:17:16;;;;;;;;;;;18.50;99.90;;;;;;7330062;19;111223;-60
2023/05/21 08:19:43;;;;;;;;;;;18.50;99.90;;;;;;7333686;19;111122;-60
2023/05/21 08:22:10;;;;;;;;;;;18.60;99.90;;;;;;7328212;19;111819;-60
2023/05/21 08:24:37;;;;;;;;;;;18.70;99.90;;;;;;7332272;19;110087;-60
2023/05/21 08:27:04;;;;;;;;;;;18.60;99.90;;;;;;7334349;19;111061;-60
2023/05/21 08:29:31;;;;;;;;;;;18.70;99.90;;;;;;7335597;19;111785;-60
2023/05/21 08:31:58;;;;;;;;;;;18.80;99.90;;;;;;7333303;19;109765;-60
2023/05/21 08:34:26;;;;;;;;;;;18.90;99.90;;;;;;7328768;19;109930;-60
2023/05/21 08:36:53;;;;;;;;;;;19.10;99.90;;;;;;7328679;19;111209;-60
2023/05/21 08:39:20;;;;;;;;;;;19.20;99.90;;;;;;7330814;19;109878;-60
2023/05/21 08:41:51;;;;;;;;;;;19.10;99.90;;;;;;7331288;19;110796;-60
2023/05/21 08:44:20;;;;;;;;;;;19.20;99.90;;;;;;7333266;19;110928;-60
2023/05/21 08:46:49;;;;;;;;;;;19.20;99.90;;;;;;7331439;19;109192;-60
2023/05/21 08:49:17;;;;;;;;;;;19.30;99.90;;;;;;7338299;19;109939;-60
2023/05/21 08:51:45;;;;;;;;;;;19.40;99.90;;;;;;7333153;19;110411;-59
2023/05/21 08:54:13;;;;;;;;;;;19.40;99.90;;;;;;7332857;19;109382;-60
2023/05/21 08:56:45;;;;;;;;;;;19.40;99.90;;;;;;7331702;19;110440;-60
2023/05/21 08:59:13;;;;;;;;;;;19.60;99.90;;;;;;7330854;19;110371;-59
2023/05/21 09:01:41;;;;;;;;;;;19.70;99.90;;;;;;7332282;19;109998;-60
2023/05/21 09:04:09;;;;;;;;;;;19.70;99.90;;;;;;7331632;19;110536;-61
2023/05/21 09:06:47;;;;;;;;;;;19.50;99.90;;;;;;7328202;19;109596;-60
2023/05/21 09:09:23;;;;;;;;;;;19.50;99.90;;;;;;7331767;19;109970;-59
2023/05/21 09:11:50;;;;;;;;;;;19.60;99.90;;;;;;7338344;19;110308;-59
2023/05/21 09:14:18;;;;;;;;;;;19.70;99.90;;;;;;7326612;19;111389;-59
2023/05/21 09:16:48;;;;;;;;;;;19.90;99.90;;;;;;7324380;19;111175;-62
2023/05/21 09:19:15;;;;;;;;;;;19.90;99.90;;;;;;7326516;19;110469;-59
2023/05/21 09:21:42;;;;;;;;;;;19.80;99.90;;;;;;7333739;19;109286;-60
2023/05/21 09:24:10;;;;;;;;;;;19.80;99.90;;;;;;7329493;19;113923;-59
2023/05/21 09:26:40;;;;;;;;;;;19.90;99.90;;;;;;7332321;19;109367;-59
2023/05/21 09:29:07;;;;;;;;;;;20.00;99.90;;;;;;7331098;19;109687;-59
2023/05/21 09:31:35;;;;;;;;;;;20.10;99.90;;;;;;7328243;19;110683;-59
2023/05/21 09:34:02;;;;;;;;;;;20.00;99.90;;;;;;7333708;19;109652;-59
2023/05/21 09:36:30;;;;;;;;;;;20.00;99.90;;;;;;7326697;19;110760;-59
2023/05/21 09:38:58;;;;;;;;;;;19.90;99.90;;;;;;7328848;19;109790;-59
2023/05/21 09:41:35;;;;;;;;;;;19.80;99.90;;;;;;7325699;19;109588;-59
2023/05/21 09:44:02;;;;;;;;;;;19.90;99.90;;;;;;7328434;19;112227;-60
2023/05/21 09:46:39;;;;;;;;;;;20.10;99.90;;;;;;7332281;19;110325;-60
2023/05/21 09:49:21;;;;;;;;;;;20.30;99.90;;;;;;7337702;19;109991;-60
2023/05/21 09:51:48;;;;;;;;;;;20.40;99.90;;;;;;7336885;19;111129;-60
2023/05/21 09:54:15;;;;;;;;;;;20.50;99.90;;;;;;7337023;19;109938;-62
2023/05/21 09:56:42;;;;;;;;;;;20.40;99.90;;;;;;7342922;19;109800;-60
2023/05/21 09:59:09;;;;;;;;;;;20.50;99.90;;;;;;7338262;19;109956;-61
2023/05/21 10:01:37;;;;;;;;;;;20.60;99.90;;;;;;7338130;19;109580;-61
2023/05/21 10:04:08;;;;;;;;;;;20.60;99.90;;;;;;7335658;19;110573;-62
2023/05/21 10:06:42;;;;;;;;;;;20.60;99.90;;;;;;7334957;19;109994;-63
2023/05/21 10:09:10;;;;;;;;;;;20.60;99.90;;;;;;7337527;19;109506;-62
2023/05/21 10:11:38;;;;;;;;;;;20.60;99.90;;;;;;7338237;19;111079;-63
2023/05/21 10:14:06;;;;;;;;;;;20.80;99.90;;;;;;7336094;19;109657;-65
2023/05/21 10:16:34;;;;;;;;;;;21.10;99.90;;;;;;7345982;19;110360;-64
2023/05/21 10:19:02;;;;;;;;;;;21.30;99.90;;;;;;7338108;19;109409;-64
2023/05/21 10:21:32;;;;;;;;;;;21.30;99.90;;;;;;7340750;19;110223;-64
2023/05/21 10:24:00;;;;;;;;;;;21.40;99.90;;;;;;7337392;19;110628;-61
2023/05/21 10:26:28;;;;;;;;;;;21.30;99.90;;;;;;7339074;19;109674;-63
2023/05/21 10:28:56;;;;;;;;;;;21.40;99.90;;;;;;7333411;19;109942;-65
2023/05/21 10:31:25;;;;;;;;;;;21.60;99.90;;;;;;7338068;19;112403;-62
2023/05/21 10:33:53;;;;;;;;;;;21.70;99.90;;;;;;7337539;19;109681;-60
2023/05/21 10:36:22;;;;;;;;;;;21.80;99.90;;;;;;7335626;19;110615;-60
2023/05/21 10:38:49;;;;;;;;;;;22.00;99.90;;;;;;7342963;19;112569;-59
2023/05/21 10:41:18;;;;;;;;;;;22.10;99.90;;;;;;7337289;19;111069;-61
2023/05/21 10:44:00;;;;;;;;;;;22.20;99.90;;;;;;7337370;19;111571;-62
2023/05/21 10:46:27;;;;;;;;;;;22.20;99.90;;;;;;7339222;19;109758;-62
2023/05/21 10:49:09;;;;;;;;;;;21.90;99.90;;;;;;7337866;19;110848;-63
2023/05/21 10:51:53;;;;;;;;;;;21.90;99.90;;;;;;7335719;19;111076;-61
2023/05/21 10:54:32;;;;;;;;;;;22.10;99.90;;;;;;7338324;19;109462;-62
2023/05/21 10:57:17;;;;;;;;;;;22.20;99.90;;;;;;7337359;19;113211;-60
2023/05/21 10:59:44;;;;;;;;;;;22.20;99.90;;;;;;7335899;19;110497;-69
2023/05/21 11:02:13;;;;;;;;;;;22.30;99.90;;;;;;7342510;19;112304;-71
2023/05/21 11:04:43;;;;;;;;;;;22.40;99.90;;;;;;7336539;19;111109;-80
2023/05/21 11:07:11;;;;;;;;;;;22.50;99.90;;;;;;7334646;19;110674;-68
2023/05/21 11:09:38;;;;;;;;;;;22.60;99.90;;;;;;7338425;19;110292;-67
2023/05/21 11:12:06;;;;;;;;;;;22.70;99.90;;;;;;7333280;19;111498;-65
2023/05/21 11:14:35;;;;;;;;;;;22.60;99.90;;;;;;7337868;19;110904;-64
2023/05/21 11:17:03;;;;;;;;;;;22.60;99.90;;;;;;7336360;19;110289;-63
2023/05/21 11:19:51;;;;;;;;;;;22.80;99.90;;;;;;7333691;19;110496;-68
2023/05/21 11:22:18;;;;;;;;;;;22.70;99.90;;;;;;7333747;19;111730;-66
2023/05/21 11:24:45;;;;;;;;;;;22.80;99.90;;;;;;7340544;19;109404;-65
2023/05/21 11:27:32;;;;;;;;;;;22.80;99.90;;;;;;7335175;19;109889;-66
2023/05/21 11:30:02;;;;;;;;;;;22.80;99.90;;;;;;7336772;19;110447;-67
2023/05/21 11:32:30;;;;;;;;;;;22.80;99.90;;;;;;7334418;19;110523;-66
2023/05/21 11:35:03;;;;;;;;;;;22.80;99.90;;;;;;7338315;19;110025;-63
2023/05/21 11:37:32;;;;;;;;;;;23.00;99.90;;;;;;7335472;19;110222;-67
2023/05/21 11:40:37;;;;;;;;;;;23.30;99.90;;;;;;7335090;19;109908;-65
2023/05/21 11:43:04;;;;;;;;;;;23.50;99.90;;;;;;7330169;19;112924;-65
2023/05/21 11:45:32;;;;;;;;;;;23.30;99.90;;;;;;7331664;19;109770;-66
2023/05/21 11:47:59;;;;;;;;;;;23.30;99.90;;;;;;7336266;19;110074;-68
2023/05/21 11:50:29;;;;;;;;;;;23.30;99.90;;;;;;7331266;19;111189;-69
2023/05/21 11:52:58;;;;;;;;;;;23.30;99.90;;;;;;7331194;19;110090;-69
2023/05/21 11:55:25;;;;;;;;;;;23.40;99.90;;;;;;7334501;19;110064;-69
2023/05/21 11:57:53;;;;;;;;;;;23.40;99.90;;;;;;7332663;19;109774;-67
2023/05/21 12:00:21;;;;;;;;;;;23.40;99.90;;;;;;7330318;19;110638;-68
2023/05/21 12:02:50;;;;;;;;;;;23.50;99.90;;;;;;7333034;19;111852;-65
2023/05/21 12:05:17;;;;;;;;;;;23.80;99.90;;;;;;7332596;19;110387;-73
2023/05/21 12:07:48;;;;;;;;;;;24.10;99.90;;;;;;7330873;19;110627;-74
2023/05/21 12:10:19;;;;;;;;;;;24.20;99.90;;;;;;7335518;19;111488;-67
2023/05/21 12:12:46;;;;;;;;;;;24.30;99.90;;;;;;7329178;19;110647;-66
2023/05/21 12:15:23;;;;;;;;;;;24.30;99.90;;;;;;7334807;19;109703;-71
2023/05/21 12:17:51;;;;;;;;;;;24.30;99.90;;;;;;7336167;19;109616;-79
2023/05/21 12:20:19;;;;;;;;;;;24.20;99.90;;;;;;7336031;19;111140;-74
2023/05/21 12:22:47;;;;;;;;;;;24.20;99.90;;;;;;7337243;19;109807;-63
2023/05/21 12:25:18;;;;;;;;;;;24.30;99.90;;;;;;7335837;19;113401;-68
2023/05/21 12:27:47;;;;;;;;;;;24.30;99.90;;;;;;7334263;19;110254;-62
2023/05/21 12:30:14;;;;;;;;;;;24.20;99.90;;;;;;7340030;19;111050;-68
2023/05/21 12:32:45;;;;;;;;;;;24.10;99.90;;;;;;7333706;19;110647;-65
2023/05/21 12:35:19;;;;;;;;;;;24.10;99.90;;;;;;7329068;19;109696;-66
2023/05/21 12:37:49;;;;;;;;;;;24.40;99.90;;;;;;7334923;19;109989;-66
2023/05/21 12:40:16;;;;;;;;;;;24.50;99.90;;;;;;7333747;19;110196;-63
2023/05/21 12:42:44;;;;;;;;;;;24.60;99.90;;;;;;7333504;19;111509;-64
2023/05/21 12:45:11;;;;;;;;;;;24.60;99.90;;;;;;7336294;19;110064;-65
2023/05/21 12:47:38;;;;;;;;;;;24.50;99.90;;;;;;7333674;19;110178;-63
2023/05/21 12:50:11;;;;;;;;;;;24.60;99.90;;;;;;7338575;19;109422;-64
2023/05/21 12:52:39;;;;;;;;;;;24.80;99.90;;;;;;7337230;19;109700;-63
2023/05/21 12:55:06;;;;;;;;;;;24.90;99.90;;;;;;7336569;19;110261;-60
2023/05/21 12:57:37;;;;;;;;;;;24.90;99.90;;;;;;7333528;19;110448;-61
2023/05/21 13:00:09;;;;;;;;;;;24.90;99.90;;;;;;7334370;19;111003;-63
2023/05/21 13:02:39;;;;;;;;;;;24.80;99.90;;;;;;7334964;19;109378;-60
2023/05/21 13:05:08;;;;;;;;;;;24.80;99.90;;;;;;7332682;19;109386;-64
2023/05/21 13:07:36;;;;;;;;;;;25.00;99.90;;;;;;7333456;19;109897;-61
2023/05/21 13:10:04;;;;;;;;;;;25.20;99.90;;;;;;7332306;19;109634;-62
2023/05/21 13:12:32;;;;;;;;;;;25.40;99.90;;;;;;7332274;19;109343;-64
2023/05/21 13:14:59;;;;;;;;;;;25.50;99.90;;;;;;7337784;19;110473;-63
2023/05/21 13:17:27;;;;;;;;;;;25.50;99.90;;;;;;7333154;19;110029;-66
2023/05/21 13:20:13;;;;;;;;;;;25.50;99.90;;;;;;7328941;19;110191;-61
2023/05/21 13:22:45;;;;;;;;;;;25.50;99.90;;;;;;7339520;19;110647;-62
2023/05/21 13:25:18;;;;;;;;;;;25.60;99.90;;;;;;7339135;19;109846;-62
2023/05/21 13:27:46;;;;;;;;;;;25.60;99.90;;;;;;7339428;19;110222;-62
2023/05/21 13:30:13;;;;;;;;;;;25.60;99.90;;;;;;7338138;19;109960;-63
2023/05/21 13:32:41;;;;;;;;;;;25.90;99.90;;;;;;7340958;19;110368;-62
2023/05/21 13:35:09;;;;;;;;;;;26.10;99.90;;;;;;7336914;19;110622;-63
2023/05/21 13:37:38;;;;;;;;;;;26.10;99.90;;;;;;7344225;19;110582;-62
2023/05/21 13:40:06;;;;;;;;;;;26.30;99.90;;;;;;7336404;19;110415;-65
2023/05/21 13:42:34;;;;;;;;;;;26.30;99.50;;;;;;7340813;19;109725;-60
2023/05/21 13:45:01;;;;;;;;;;;26.40;99.90;;;;;;7337799;19;110578;-60
2023/05/21 13:47:28;;;;;;;;;;;26.30;99.80;;;;;;7337763;19;110118;-63
2023/05/21 13:49:55;;;;;;;;;;;26.40;99.90;;;;;;7338945;19;110675;-63
2023/05/21 13:52:22;;;;;;;;;;;26.60;99.90;;;;;;7337293;19;109611;-63
2023/05/21 13:54:49;;;;;;;;;;;26.90;99.00;;;;;;7335927;19;110281;-62
2023/05/21 13:57:16;;;;;;;;;;;26.60;99.40;;;;;;7338455;19;110263;-63
2023/05/21 13:59:43;;;;;;;;;;;26.60;98.70;;;;;;7338171;19;109820;-60
2023/05/21 14:02:10;;;;;;;;;;;26.40;99.10;;;;;;7335545;19;109488;-65
2023/05/21 14:04:38;;;;;;;;;;;26.50;99.20;;;;;;7339398;19;109771;-64
2023/05/21 14:07:05;;;;;;;;;;;26.40;98.70;;;;;;7336294;19;111444;-65
2023/05/21 14:09:33;;;;;;;;;;;26.50;99.20;;;;;;7339983;19;109380;-63
2023/05/21 14:12:00;;;;;;;;;;;26.60;98.80;;;;;;7331997;19;110922;-64